Time;durP1;ratioP1;P1;durP2;ratioP2;P2;SDS_P1;SDS_P2;PMS_P1;PMS_P2;Temp;Humidity;BMP_temperature;BMP_pressure;BME280_temperature;BME280_humidity;BME280_pressure;Samples;Min_cycle;Max_cycle;Signal;HPM_P1;HPM_P2
2022/03/30 00:01:46;;;;;;;;;;;;;;;21.33;42.08;100244.09;4977543;28;4251;-57
2022/03/30 00:04:13;;;;;;;;;;;;;;;21.31;42.24;100241.88;4975873;28;4186;-56
2022/03/30 00:06:39;;;;;;;;;;;;;;;21.30;42.34;100237.53;4975716;28;4238;-56
2022/03/30 00:09:05;;;;;;;;;;;;;;;21.30;42.37;100242.53;4977490;28;4532;-56
2022/03/30 00:11:32;;;;;;;;;;;;;;;21.28;42.32;100228.84;4973278;28;4181;-56
2022/03/30 00:13:58;;;;;;;;;;;;;;;21.28;42.26;100237.47;4978644;28;4228;-56
2022/03/30 00:16:24;;;;;;;;;;;;;;;21.28;42.25;100233.84;4979417;28;4214;-57
2022/03/30 00:18:51;;;;;;;;;;;;;;;21.26;42.19;100225.16;4978614;28;4186;-55
2022/03/30 00:21:18;;;;;;;;;;;;;;;21.25;42.53;100227.28;4978941;28;4169;-56
2022/03/30 00:23:44;;;;;;;;;;;;;;;21.23;42.15;100230.09;4977708;28;4153;-56
2022/03/30 00:26:11;;;;;;;;;;;;;;;21.22;42.35;100228.63;4977274;28;4305;-55
2022/03/30 00:28:37;;;;;;;;;;;;;;;21.21;42.29;100232.94;4977452;28;4237;-56
2022/03/30 00:31:03;;;;;;;;;;;;;;;21.22;42.25;100222.88;4978240;28;4361;-57
2022/03/30 00:33:30;;;;;;;;;;;;;;;21.19;42.36;100229.22;4976646;28;5267;-56
2022/03/30 00:35:56;;;;;;;;;;;;;;;21.17;42.26;100232.78;4978145;28;4255;-57
2022/03/30 00:38:22;;;;;;;;;;;;;;;21.17;42.19;100235.66;4978751;28;4220;-57
2022/03/30 00:40:49;;;;;;;;;;;;;;;21.15;42.27;100235.59;4976640;28;4000;-55
2022/03/30 00:43:15;;;;;;;;;;;;;;;21.17;42.17;100232.06;4975859;28;4534;-56
2022/03/30 00:45:42;;;;;;;;;;;;;;;21.19;42.12;100234.97;4975852;28;3999;-56
2022/03/30 00:48:08;;;;;;;;;;;;;;;21.20;42.17;100233.59;4975846;28;4891;-56
2022/03/30 00:50:34;;;;;;;;;;;;;;;21.22;41.97;100228.63;4977410;28;4035;-56
2022/03/30 00:53:01;;;;;;;;;;;;;;;21.23;41.95;100230.09;4976211;28;4329;-57
2022/03/30 00:55:27;;;;;;;;;;;;;;;21.24;41.93;100231.59;4976849;28;5458;-56
2022/03/30 00:57:54;;;;;;;;;;;;;;;21.25;41.94;100224.41;4973857;28;4613;-56
2022/03/30 01:00:20;;;;;;;;;;;;;;;21.25;41.74;100221.53;4976520;28;4161;-56
2022/03/30 01:02:47;;;;;;;;;;;;;;;21.25;41.76;100227.28;4978595;28;4224;-57
2022/03/30 01:05:14;;;;;;;;;;;;;;;21.25;41.69;100226.56;4977521;28;4485;-55
2022/03/30 01:07:40;;;;;;;;;;;;;;;21.26;41.75;100223.00;4978794;28;4133;-56
2022/03/30 01:10:07;;;;;;;;;;;;;;;21.26;41.76;100220.13;4976070;28;5382;-57
2022/03/30 01:12:36;;;;;;;;;;;;;;;21.26;42.03;100214.38;4974347;28;4258;-56
2022/03/30 01:15:03;;;;;;;;;;;;;;;21.27;41.99;100209.34;4972916;28;5310;-54
2022/03/30 01:17:29;;;;;;;;;;;;;;;21.26;41.89;100210.75;4975017;28;5741;-54
2022/03/30 01:19:56;;;;;;;;;;;;;;;21.25;41.97;100212.88;4976967;28;4165;-57
2022/03/30 01:22:23;;;;;;;;;;;;;;;21.26;41.93;100210.75;4976710;28;4507;-54
2022/03/30 01:24:49;;;;;;;;;;;;;;;21.24;41.97;100214.31;4974107;28;4496;-56
2022/03/30 01:27:16;;;;;;;;;;;;;;;21.24;42.10;100202.78;4979373;28;5562;-57
2022/03/30 01:32:28;;;;;;;;;;;;;;;21.23;42.12;100204.19;4973384;28;4189;-56
2022/03/30 01:34:56;;;;;;;;;;;;;;;21.23;41.93;100201.28;4979261;28;4158;-56
2022/03/30 01:37:23;;;;;;;;;;;;;;;21.23;41.89;100201.28;4980190;28;4172;-57
2022/03/30 01:39:49;;;;;;;;;;;;;;;21.24;42.02;100190.53;4980909;28;4210;-56
2022/03/30 01:42:16;;;;;;;;;;;;;;;21.24;41.99;100197.03;4981742;28;4239;-56
2022/03/30 01:44:42;;;;;;;;;;;;;;;21.24;42.04;100191.25;4980289;28;4151;-56
2022/03/30 01:47:10;;;;;;;;;;;;;;;21.24;41.99;100197.03;4979711;28;3960;-55
2022/03/30 01:49:36;;;;;;;;;;;;;;;21.25;42.02;100198.47;4981328;28;5243;-56
2022/03/30 01:52:03;;;;;;;;;;;;;;;21.25;41.97;100186.97;4981301;28;4248;-56
2022/03/30 01:54:31;;;;;;;;;;;;;;;21.23;41.83;100186.91;4977192;28;4182;-55
2022/03/30 01:56:58;;;;;;;;;;;;;;;21.24;41.93;100191.25;4978471;28;4973;-56
2022/03/30 01:59:24;;;;;;;;;;;;;;;21.23;42.05;100189.78;4981192;28;4306;-57
2022/03/30 02:01:52;;;;;;;;;;;;;;;21.23;41.97;100189.03;4978904;28;4162;-57
2022/03/30 02:04:18;;;;;;;;;;;;;;;21.23;42.01;100184.03;4980052;28;4195;-57
2022/03/30 02:06:44;;;;;;;;;;;;;;;21.23;41.87;100181.16;4980379;28;4333;-56
2022/03/30 02:09:12;;;;;;;;;;;;;;;21.23;42.00;100181.16;4975256;28;4620;-55
2022/03/30 02:11:38;;;;;;;;;;;;;;;21.21;41.93;100175.34;4977630;28;4434;-56
2022/03/30 02:14:05;;;;;;;;;;;;;;;21.23;41.88;100177.53;4980004;28;4171;-57
2022/03/30 02:16:31;;;;;;;;;;;;;;;21.23;41.89;100177.53;4979109;28;4151;-56
2022/03/30 02:18:57;;;;;;;;;;;;;;;21.22;41.97;100173.91;4981420;28;4159;-56
2022/03/30 02:21:24;;;;;;;;;;;;;;;21.22;41.79;100176.81;4978604;28;4005;-56
2022/03/30 02:23:51;;;;;;;;;;;;;;;21.22;41.86;100176.81;4978443;28;4290;-57
2022/03/30 02:26:17;;;;;;;;;;;;;;;21.21;42.08;100178.22;4978292;28;5337;-56
2022/03/30 02:28:43;;;;;;;;;;;;;;;21.22;41.81;100176.06;4980616;28;4253;-56
2022/03/30 02:31:11;;;;;;;;;;;;;;;21.24;41.94;100164.63;4978586;28;4244;-57
2022/03/30 02:33:38;;;;;;;;;;;;;;;21.24;42.10;100167.50;4980702;28;5529;-55
2022/03/30 02:36:04;;;;;;;;;;;;;;;21.22;41.74;100168.16;4980551;28;4365;-57
2022/03/30 02:38:31;;;;;;;;;;;;;;;21.22;42.10;100170.31;4977374;28;4088;-57
2022/03/30 02:40:57;;;;;;;;;;;;;;;21.24;41.85;100173.25;4978133;28;4248;-55
2022/03/30 02:43:23;;;;;;;;;;;;;;;21.22;41.90;100173.19;4979401;28;4157;-57
2022/03/30 02:45:50;;;;;;;;;;;;;;;21.22;41.77;100171.03;4979330;28;4396;-57
2022/03/30 02:48:19;;;;;;;;;;;;;;;21.21;41.92;100169.59;4978418;28;4020;-56
2022/03/30 02:50:46;;;;;;;;;;;;;;;21.22;42.11;100165.28;4978869;28;4231;-56
2022/03/30 02:53:13;;;;;;;;;;;;;;;21.22;42.08;100168.16;4978347;28;4205;-55
2022/03/30 02:55:39;;;;;;;;;;;;;;;21.22;42.01;100165.28;4977730;28;4320;-56
2022/03/30 02:58:06;;;;;;;;;;;;;;;21.21;42.00;100163.81;4978675;28;4238;-57
2022/03/30 03:00:32;;;;;;;;;;;;;;;21.22;42.31;100165.28;4978533;28;4172;-55
2022/03/30 03:03:00;;;;;;;;;;;;;;;21.22;42.30;100168.16;4978051;28;5150;-57
2022/03/30 03:05:31;;;;;;;;;;;;;;;21.24;42.22;100168.22;4976948;28;4095;-55
2022/03/30 03:07:58;;;;;;;;;;;;;;;21.23;42.24;100172.50;4976940;28;5412;-56
2022/03/30 03:10:25;;;;;;;;;;;;;;;21.21;42.09;100172.47;4979046;28;4185;-56
2022/03/30 03:12:52;;;;;;;;;;;;;;;21.24;42.10;100173.25;4980581;28;3991;-56
2022/03/30 03:15:18;;;;;;;;;;;;;;;21.24;41.90;100171.13;4979365;28;3991;-55
2022/03/30 03:17:45;;;;;;;;;;;;;;;21.23;41.85;100160.97;4979115;28;4270;-56
2022/03/30 03:20:11;;;;;;;;;;;;;;;21.23;41.94;100160.97;4976604;28;4993;-56
2022/03/30 03:22:38;;;;;;;;;;;;;;;21.23;42.02;100160.97;4976820;28;4205;-56
2022/03/30 03:25:06;;;;;;;;;;;;;;;21.24;41.98;100161.75;4979036;28;4205;-55
2022/03/30 03:27:32;;;;;;;;;;;;;;;21.25;42.06;100158.19;4977551;28;4255;-55
2022/03/30 03:29:59;;;;;;;;;;;;;;;21.24;41.94;100161.75;4978652;28;4284;-57
2022/03/30 03:32:25;;;;;;;;;;;;;;;21.23;41.96;100163.88;4978966;28;4288;-56
2022/03/30 03:34:52;;;;;;;;;;;;;;;21.23;42.02;100149.47;4978363;28;4060;-54
2022/03/30 03:37:18;;;;;;;;;;;;;;;21.22;41.86;100153.78;4977463;28;4137;-56
2022/03/30 03:39:46;;;;;;;;;;;;;;;21.22;41.92;100150.88;4977440;28;4595;-56
2022/03/30 03:42:13;;;;;;;;;;;;;;;21.24;41.91;100162.47;4977970;28;4506;-55
2022/03/30 03:44:40;;;;;;;;;;;;;;;21.23;41.67;100154.50;4978060;28;5331;-56
2022/03/30 03:47:09;;;;;;;;;;;;;;;21.22;41.75;100148.00;4978505;28;4502;-56
2022/03/30 03:49:36;;;;;;;;;;;;;;;21.22;41.74;100159.53;4977681;28;4153;-55
2022/03/30 03:52:03;;;;;;;;;;;;;;;21.22;42.02;100159.53;4975326;28;5563;-53
2022/03/30 03:54:29;;;;;;;;;;;;;;;21.22;41.91;100148.00;4978303;28;4009;-56
2022/03/30 03:56:55;;;;;;;;;;;;;;;21.23;42.29;100155.22;4978612;28;5460;-57
2022/03/30 03:59:22;;;;;;;;;;;;;;;21.21;42.14;100149.44;4978650;28;4010;-57
2022/03/30 04:01:49;;;;;;;;;;;;;;;21.23;42.34;100163.88;4975713;28;4094;-57
2022/03/30 04:04:16;;;;;;;;;;;;;;;21.26;42.10;100156.78;4975670;28;4184;-57
2022/03/30 04:06:43;;;;;;;;;;;;;;;21.27;42.15;100149.59;4976505;28;4238;-57
2022/03/30 04:09:09;;;;;;;;;;;;;;;21.26;42.04;100156.06;4973642;28;4229;-57
2022/03/30 04:11:35;;;;;;;;;;;;;;;21.28;42.17;100159.72;4979835;28;4239;-56
2022/03/30 04:14:02;;;;;;;;;;;;;;;21.30;42.01;100154.03;4977453;28;4122;-58
2022/03/30 04:16:28;;;;;;;;;;;;;;;21.32;41.99;100156.94;4977575;28;4188;-57
2022/03/30 04:18:55;;;;;;;;;;;;;;;21.34;41.93;100154.13;4975150;28;5374;-58
2022/03/30 04:21:21;;;;;;;;;;;;;;;21.34;42.00;100153.41;4972205;28;5202;-58
2022/03/30 04:23:47;;;;;;;;;;;;;;;21.37;41.91;100151.31;4975939;28;5742;-57
2022/03/30 04:26:14;;;;;;;;;;;;;;;21.37;41.73;100145.56;4976018;28;4197;-57
2022/03/30 04:28:40;;;;;;;;;;;;;;;21.37;41.82;100143.41;4973078;28;4064;-57
2022/03/30 04:31:07;;;;;;;;;;;;;;;21.37;41.58;100151.31;4975517;28;4301;-58
2022/03/30 04:33:34;;;;;;;;;;;;;;;21.38;41.61;100141.28;4978343;28;4710;-57
2022/03/30 04:36:00;;;;;;;;;;;;;;;21.38;41.79;100138.41;4973527;28;5429;-58
2022/03/30 04:38:27;;;;;;;;;;;;;;;21.38;41.49;100139.16;4972642;28;4250;-56
2022/03/30 04:40:53;;;;;;;;;;;;;;;21.39;41.52;100140.59;4972397;28;5374;-57
2022/03/30 04:43:19;;;;;;;;;;;;;;;21.14;39.85;100136.22;4971773;28;4189;-58
2022/03/30 04:45:46;;;;;;;;;;;;;;;21.26;41.07;100139.50;4970050;28;4318;-62
2022/03/30 04:48:44;;;;;;;;;;;;;;;21.25;41.17;100140.16;4970928;28;4281;-59
2022/03/30 04:51:10;;;;;;;;;;;;;;;21.22;40.86;100145.13;4971887;28;5246;-59
2022/03/30 04:53:36;;;;;;;;;;;;;;;21.23;41.02;100146.59;4975645;28;4058;-59
2022/03/30 04:56:03;;;;;;;;;;;;;;;21.23;41.27;100137.94;4973887;28;4243;-60
2022/03/30 04:58:30;;;;;;;;;;;;;;;21.23;41.51;100140.84;4973954;28;5132;-59
2022/03/30 05:00:56;;;;;;;;;;;;;;;21.23;41.81;100135.06;4973683;28;4379;-59
2022/03/30 05:03:22;;;;;;;;;;;;;;;21.22;42.21;100130.72;4979169;28;4157;-59
2022/03/30 05:05:49;;;;;;;;;;;;;;;21.22;42.81;100135.75;4978935;28;4226;-59
2022/03/30 05:08:15;;;;;;;;;;;;;;;21.21;42.77;100143.69;4976911;28;4388;-60
2022/03/30 05:10:43;;;;;;;;;;;;;;;21.20;42.95;100135.69;4978230;28;4359;-60
2022/03/30 05:13:10;;;;;;;;;;;;;;;21.24;42.82;100142.31;4977482;28;4562;-59
2022/03/30 05:15:36;;;;;;;;;;;;;;;21.23;42.96;100137.22;4975142;28;4211;-59
2022/03/30 05:18:02;;;;;;;;;;;;;;;21.20;42.93;100145.06;4973882;28;4512;-59
2022/03/30 05:20:29;;;;;;;;;;;;;;;21.18;42.81;100138.50;4974489;28;4089;-60
2022/03/30 05:22:55;;;;;;;;;;;;;;;21.18;42.90;100135.63;4975411;28;4507;-59
2022/03/30 05:25:23;;;;;;;;;;;;;;;21.15;42.23;100139.88;4977131;28;4178;-60
2022/03/30 05:27:49;;;;;;;;;;;;;;;21.11;41.62;100149.81;4976173;28;4234;-59
2022/03/30 05:30:16;;;;;;;;;;;;;;;21.04;41.45;100144.56;4975720;28;5322;-59
2022/03/30 05:32:45;;;;;;;;;;;;;;;20.98;41.43;100141.47;4978168;28;4245;-60
2022/03/30 05:35:12;;;;;;;;;;;;;;;20.97;41.45;100140.00;4977379;28;4167;-59
2022/03/30 05:37:38;;;;;;;;;;;;;;;20.95;41.29;100137.06;4976319;28;4225;-59
2022/03/30 05:40:05;;;;;;;;;;;;;;;20.89;41.49;100138.34;4976991;28;4016;-59
2022/03/30 05:42:31;;;;;;;;;;;;;;;20.88;41.38;100139.00;4977303;28;4303;-59
2022/03/30 05:44:57;;;;;;;;;;;;;;;20.82;40.87;100142.44;4976998;28;5240;-59
2022/03/30 05:47:24;;;;;;;;;;;;;;;20.70;40.44;100142.00;4977381;28;4284;-60
2022/03/30 05:49:50;;;;;;;;;;;;;;;20.86;40.08;100142.53;4975654;28;4140;-64
2022/03/30 05:52:17;;;;;;;;;;;;;;;20.65;40.18;100134.66;4954173;28;3985;-59
2022/03/30 05:54:43;;;;;;;;;;;;;;;20.67;39.32;100131.84;4976780;28;4218;-59
2022/03/30 05:57:10;;;;;;;;;;;;;;;20.42;39.78;100139.59;4977245;28;4468;-59
2022/03/30 05:59:37;;;;;;;;;;;;;;;20.44;40.01;100139.69;4977672;28;4121;-59
2022/03/30 06:02:05;;;;;;;;;;;;;;;20.49;39.36;100135.53;4976060;28;4661;-59
2022/03/30 06:04:32;;;;;;;;;;;;;;;20.56;39.25;100132.88;4977292;28;5303;-59
2022/03/30 06:06:58;;;;;;;;;;;;;;;20.57;39.08;100135.13;4976204;28;4442;-59
2022/03/30 06:09:24;;;;;;;;;;;;;;;20.37;39.36;100135.13;4976679;28;5776;-59
2022/03/30 06:12:05;;;;;;;;;;;;;;;20.71;39.22;100126.22;4978575;28;4593;-60
2022/03/30 06:14:32;;;;;;;;;;;;;;;20.85;39.08;100123.81;4980015;28;4874;-60
2022/03/30 06:16:58;;;;;;;;;;;;;;;20.92;39.57;100127.63;4980460;28;6734;-60
2022/03/30 06:19:25;;;;;;;;;;;;;;;20.80;39.63;100122.22;4978717;28;4497;-60
2022/03/30 06:21:51;;;;;;;;;;;;;;;20.84;39.80;100121.59;4979288;28;5765;-60
2022/03/30 06:24:17;;;;;;;;;;;;;;;20.90;40.08;100124.69;4979474;28;5310;-60
2022/03/30 06:26:44;;;;;;;;;;;;;;;20.89;39.66;100128.94;4980278;28;4430;-60
2022/03/30 06:29:11;;;;;;;;;;;;;;;20.87;39.24;100120.28;4976932;28;5385;-59
2022/03/30 06:31:38;;;;;;;;;;;;;;;20.87;38.69;100121.00;4980083;28;4048;-59
2022/03/30 06:34:04;;;;;;;;;;;;;;;20.84;37.81;100127.34;4978424;28;4004;-59
2022/03/30 06:36:33;;;;;;;;;;;;;;;20.82;37.09;100119.41;4980426;28;4704;-59
2022/03/30 06:38:59;;;;;;;;;;;;;;;20.82;36.41;100113.66;4978779;28;4212;-60
2022/03/30 06:41:26;;;;;;;;;;;;;;;20.82;36.87;100122.28;4979990;28;4397;-60
2022/03/30 06:43:52;;;;;;;;;;;;;;;20.86;37.54;100119.53;4980095;28;4359;-60
2022/03/30 06:46:19;;;;;;;;;;;;;;;20.86;36.82;100119.53;4979919;28;6098;-59
2022/03/30 06:48:45;;;;;;;;;;;;;;;20.86;35.79;100119.53;4980415;28;5496;-59
2022/03/30 06:51:15;;;;;;;;;;;;;;;20.80;35.70;100113.59;4977817;28;6121;-59
2022/03/30 06:53:41;;;;;;;;;;;;;;;20.82;35.55;100112.91;4979674;28;4261;-59
2022/03/30 06:56:08;;;;;;;;;;;;;;;20.82;35.21;100107.91;4978872;28;4470;-59
2022/03/30 06:58:35;;;;;;;;;;;;;;;20.79;34.67;100114.97;4980194;28;4134;-59
2022/03/30 07:01:01;;;;;;;;;;;;;;;20.80;35.51;100115.69;4978752;28;4653;-60
2022/03/30 07:03:28;;;;;;;;;;;;;;;20.76;34.52;100107.69;4979408;28;4650;-59
2022/03/30 07:05:55;;;;;;;;;;;;;;;20.82;35.29;100116.53;4977147;28;4431;-61
2022/03/30 07:11:06;;;;;;;;;;;;;;;20.91;36.61;100109.63;4977818;28;4581;-61
2022/03/30 07:13:32;;;;;;;;;;;;;;;20.94;37.02;100096.03;4978686;28;4356;-60
2022/03/30 07:15:59;;;;;;;;;;;;;;;20.97;37.57;100105.47;4979389;28;4366;-61
2022/03/30 07:18:26;;;;;;;;;;;;;;;20.96;37.65;100098.97;4980231;28;4648;-61
2022/03/30 07:20:52;;;;;;;;;;;;;;;20.83;38.63;100097.84;4978207;28;4346;-60
2022/03/30 07:23:20;;;;;;;;;;;;;;;20.75;39.15;100097.56;4976898;28;4568;-60
2022/03/30 07:25:47;;;;;;;;;;;;;;;20.66;38.96;100101.59;4979294;28;5255;-60
2022/03/30 07:28:15;;;;;;;;;;;;;;;20.49;39.08;100101.03;4978246;28;4195;-60
2022/03/30 07:30:43;;;;;;;;;;;;;;;20.46;39.33;100084.38;4977818;28;4663;-60
2022/03/30 07:33:09;;;;;;;;;;;;;;;20.77;39.06;100091.16;4975838;28;4207;-63
2022/03/30 07:35:38;;;;;;;;;;;;;;;20.86;39.29;100099.38;4977543;28;4374;-59
2022/03/30 07:38:05;;;;;;;;;;;;;;;20.92;39.15;100102.47;4976820;28;4611;-53
2022/03/30 07:40:32;;;;;;;;;;;;;;;20.95;39.45;100093.91;4977902;28;4260;-52
2022/03/30 07:42:58;;;;;;;;;;;;;;;20.96;39.52;100095.34;4975303;28;4617;-52
2022/03/30 07:45:25;;;;;;;;;;;;;;;20.96;39.63;100098.22;4976234;28;4466;-50
2022/03/30 07:47:51;;;;;;;;;;;;;;;20.98;39.54;100096.19;4978690;28;6644;-53
2022/03/30 07:50:18;;;;;;;;;;;;;;;21.00;39.77;100092.59;4977733;28;4561;-52
2022/03/30 07:52:45;;;;;;;;;;;;;;;21.02;39.68;100101.31;4978264;28;4052;-53
2022/03/30 07:55:11;;;;;;;;;;;;;;;21.01;39.64;100091.94;4978134;28;5448;-52
2022/03/30 07:57:39;;;;;;;;;;;;;;;21.04;39.75;100098.50;4976886;28;4599;-51
2022/03/30 08:00:07;;;;;;;;;;;;;;;21.01;40.00;100086.19;4978060;28;5193;-52
2022/03/30 08:02:34;;;;;;;;;;;;;;;21.02;39.99;100089.78;4978854;28;5183;-52
2022/03/30 08:05:00;;;;;;;;;;;;;;;21.06;39.88;100092.81;4976992;28;4626;-54
2022/03/30 08:07:29;;;;;;;;;;;;;;;21.08;39.87;100090.00;4978009;28;4182;-53
2022/03/30 08:09:56;;;;;;;;;;;;;;;21.06;40.02;100093.53;4976348;28;4936;-54
2022/03/30 08:12:24;;;;;;;;;;;;;;;21.07;40.10;100091.38;4977745;28;4195;-53
2022/03/30 08:14:51;;;;;;;;;;;;;;;21.09;39.99;100082.81;4977762;28;4554;-52
2022/03/30 08:17:17;;;;;;;;;;;;;;;21.07;40.17;100085.63;4979248;28;4347;-53
2022/03/30 08:19:44;;;;;;;;;;;;;;;21.05;40.54;100088.44;4977188;28;4351;-52
2022/03/30 08:22:25;;;;;;;;;;;;;;;21.06;40.43;100087.78;4979022;28;6188;-50
2022/03/30 08:24:55;;;;;;;;;;;;;;;21.08;40.35;100087.13;4978494;28;4508;-49
2022/03/30 08:27:22;;;;;;;;;;;;;;;21.09;40.34;100074.91;4976907;28;4515;-51
2022/03/30 08:29:49;;;;;;;;;;;;;;;21.09;40.40;100094.34;4978194;28;5693;-52
2022/03/30 08:32:16;;;;;;;;;;;;;;;21.07;40.64;100085.63;4976035;28;5155;-51
2022/03/30 08:34:43;;;;;;;;;;;;;;;21.07;40.51;100091.38;4977404;28;4166;-52
2022/03/30 08:37:09;;;;;;;;;;;;;;;21.09;40.66;100086.44;4977314;28;4605;-54
2022/03/30 08:39:36;;;;;;;;;;;;;;;21.08;40.54;100082.09;4977375;28;6081;-50
2022/03/30 08:42:03;;;;;;;;;;;;;;;21.11;40.81;100094.41;4977655;28;4591;-52
2022/03/30 08:44:29;;;;;;;;;;;;;;;21.10;40.70;100090.06;4977795;28;4109;-51
2022/03/30 08:46:55;;;;;;;;;;;;;;;21.09;40.78;100089.31;4976883;28;4985;-50
2022/03/30 08:49:22;;;;;;;;;;;;;;;21.09;40.83;100091.47;4976349;28;4385;-51
2022/03/30 08:51:49;;;;;;;;;;;;;;;21.09;40.93;100095.06;4977777;28;5950;-50
2022/03/30 08:54:16;;;;;;;;;;;;;;;21.08;40.90;100092.88;4977422;28;5199;-53
2022/03/30 08:56:43;;;;;;;;;;;;;;;21.09;40.95;100089.31;4976928;28;4516;-53
2022/03/30 08:59:10;;;;;;;;;;;;;;;21.07;40.92;100095.03;4976207;28;5599;-50
2022/03/30 09:01:37;;;;;;;;;;;;;;;21.09;40.89;100088.56;4977585;28;4146;-51
2022/03/30 09:04:04;;;;;;;;;;;;;;;21.09;41.07;100083.56;4977030;28;5264;-51
2022/03/30 09:06:34;;;;;;;;;;;;;;;21.08;41.01;100082.09;4977720;28;5534;-54
2022/03/30 09:09:00;;;;;;;;;;;;;;;21.08;40.82;100073.44;4976711;28;5515;-55
2022/03/30 09:11:27;;;;;;;;;;;;;;;21.09;40.99;100077.06;4977302;28;4366;-52
2022/03/30 09:14:01;;;;;;;;;;;;;;;21.09;40.96;100077.06;4976035;28;5225;-48
2022/03/30 09:16:40;;;;;;;;;;;;;;;21.08;40.96;100072.72;4976309;28;7337;-54
2022/03/30 09:19:08;;;;;;;;;;;;;;;21.08;41.20;100076.34;4977290;28;4637;-52
2022/03/30 09:21:44;;;;;;;;;;;;;;;21.07;41.14;100074.88;4976355;28;5633;-52
2022/03/30 09:24:11;;;;;;;;;;;;;;;21.09;41.25;100068.44;4976365;28;4537;-52
2022/03/30 09:26:38;;;;;;;;;;;;;;;21.08;41.19;100072.72;4977868;28;5482;-52
2022/03/30 09:29:04;;;;;;;;;;;;;;;21.07;41.30;100068.34;4976599;28;5615;-51
2022/03/30 09:31:30;;;;;;;;;;;;;;;21.06;41.28;100070.50;4977237;28;5422;-53
2022/03/30 09:34:03;;;;;;;;;;;;;;;21.05;41.18;100066.19;4975480;28;5255;-54
2022/03/30 09:36:30;;;;;;;;;;;;;;;21.04;41.33;100058.19;4977167;28;4877;-52
2022/03/30 09:38:56;;;;;;;;;;;;;;;21.05;41.43;100053.91;4976772;28;4415;-52
2022/03/30 09:41:23;;;;;;;;;;;;;;;21.04;41.41;100055.31;4976491;28;4502;-54
2022/03/30 09:43:49;;;;;;;;;;;;;;;21.03;41.42;100056.75;4977630;28;4969;-53
2022/03/30 09:46:15;;;;;;;;;;;;;;;21.04;41.58;100058.94;4978741;28;4190;-53
2022/03/30 09:48:53;;;;;;;;;;;;;;;21.04;41.59;100055.31;4979857;28;4174;-51
2022/03/30 09:51:20;;;;;;;;;;;;;;;21.03;41.50;100062.50;4982102;28;5125;-53
2022/03/30 09:53:46;;;;;;;;;;;;;;;21.06;41.43;100064.75;4980607;28;4016;-54
2022/03/30 09:56:14;;;;;;;;;;;;;;;21.09;41.51;100059.78;4980443;28;4264;-52
2022/03/30 09:58:40;;;;;;;;;;;;;;;21.10;41.29;100061.28;4980101;28;4135;-51
2022/03/30 10:01:13;;;;;;;;;;;;;;;21.10;41.48;100049.75;4978935;28;4113;-54
2022/03/30 10:03:50;;;;;;;;;;;;;;;21.10;41.32;100055.53;4980546;28;4626;-50
2022/03/30 10:06:18;;;;;;;;;;;;;;;21.09;41.41;100048.28;4978991;28;5112;-54
2022/03/30 10:08:45;;;;;;;;;;;;;;;21.12;41.33;100049.81;4981187;28;4399;-51
2022/03/30 10:11:15;;;;;;;;;;;;;;;21.12;41.38;100046.94;4981485;28;5734;-51
2022/03/30 10:13:42;;;;;;;;;;;;;;;21.11;41.26;100034.69;4980366;28;4206;-54
2022/03/30 10:16:29;;;;;;;;;;;;;;;21.13;41.34;100039.78;4979468;28;5246;-51
2022/03/30 10:18:56;;;;;;;;;;;;;;;21.11;41.39;100033.94;4980025;28;4581;-51
2022/03/30 10:21:24;;;;;;;;;;;;;;;21.13;41.54;100031.13;4980385;28;4145;-53
2022/03/30 10:23:54;;;;;;;;;;;;;;;21.13;41.34;100022.50;4978270;28;4553;-53
2022/03/30 10:26:36;;;;;;;;;;;;;;;21.15;41.45;100022.56;4980695;28;4587;-53
2022/03/30 10:29:05;;;;;;;;;;;;;;;21.16;41.50;100026.91;4979697;28;4436;-52
2022/03/30 10:31:31;;;;;;;;;;;;;;;21.15;41.40;100028.31;4978801;28;4118;-50
2022/03/30 10:33:58;;;;;;;;;;;;;;;21.14;41.63;100026.84;4980009;28;4517;-59
2022/03/30 10:36:34;;;;;;;;;;;;;;;21.13;41.51;100019.63;4979189;28;4997;-54
2022/03/30 10:39:27;;;;;;;;;;;;;;;21.15;41.54;100016.81;4979547;28;4255;-53
2022/03/30 10:42:13;;;;;;;;;;;;;;;21.17;41.52;100025.50;4979763;28;4379;-51
2022/03/30 10:44:41;;;;;;;;;;;;;;;21.18;41.42;100018.31;4980203;28;4587;-52
2022/03/30 10:47:08;;;;;;;;;;;;;;;21.19;41.38;100021.94;4977878;28;4557;-51
2022/03/30 10:49:37;;;;;;;;;;;;;;;21.19;41.42;100016.94;4978940;28;4155;-52
2022/03/30 10:52:22;;;;;;;;;;;;;;;21.19;41.44;100011.16;4979456;28;4435;-53
2022/03/30 10:54:50;;;;;;;;;;;;;;;21.18;41.35;100012.56;4980310;28;4577;-54
2022/03/30 10:57:35;;;;;;;;;;;;;;;21.17;41.40;100014.00;4977432;28;4521;-52
2022/03/30 11:00:08;;;;;;;;;;;;;;;21.20;41.45;100004.00;4979332;28;4276;-54
2022/03/30 11:02:41;;;;;;;;;;;;;;;21.19;41.42;100005.41;4977766;28;4903;-51
2022/03/30 11:05:15;;;;;;;;;;;;;;;21.18;41.46;100003.19;4979554;28;4415;-54
2022/03/30 11:07:42;;;;;;;;;;;;;;;21.18;41.39;99998.16;4979580;28;4340;-52
2022/03/30 11:10:19;;;;;;;;;;;;;;;21.20;41.29;99998.22;4978041;28;4850;-54
2022/03/30 11:13:02;;;;;;;;;;;;;;;21.22;41.28;99998.28;4977090;28;4541;-54
2022/03/30 11:15:29;;;;;;;;;;;;;;;21.08;39.30;99992.84;4976658;28;5665;-58
2022/03/30 11:18:17;;;;;;;;;;;;;;;20.96;38.33;99998.25;4977884;28;5726;-59
2022/03/30 11:21:03;;;;;;;;;;;;;;;21.03;39.40;99990.53;4975052;28;6088;-57
2022/03/30 11:23:30;;;;;;;;;;;;;;;21.08;40.90;99995.00;4974757;28;4559;-57
2022/03/30 11:25:56;;;;;;;;;;;;;;;21.10;40.76;99990.03;4976608;28;4595;-57
2022/03/30 11:28:36;;;;;;;;;;;;;;;21.03;37.99;99993.41;4975694;28;4043;-60
2022/03/30 11:31:04;;;;;;;;;;;;;;;20.63;33.75;99997.22;4974462;28;4396;-57
2022/03/30 11:33:34;;;;;;;;;;;;;;;20.72;34.05;99995.34;4979337;28;4663;-59
2022/03/30 11:36:03;;;;;;;;;;;;;;;20.85;36.03;99985.69;4978044;28;5222;-57
2022/03/30 11:38:37;;;;;;;;;;;;;;;20.88;36.23;99990.09;4977506;28;4590;-56
2022/03/30 11:41:06;;;;;;;;;;;;;;;20.85;36.81;99991.44;4977021;28;4421;-57
2022/03/30 11:45:12;;;;;;;;;;;;;;;20.93;37.71;99977.28;4979241;28;4293;-55
2022/03/30 11:46:26;;;;;;;;;;;;;;;21.00;38.42;99974.59;4977588;28;4079;-55
2022/03/30 11:48:53;;;;;;;;;;;;;;;21.01;38.59;99973.94;4980561;28;4481;-55
2022/03/30 11:51:26;;;;;;;;;;;;;;;21.03;38.62;99971.13;4975834;28;4403;-56
2022/03/30 11:54:11;;;;;;;;;;;;;;;21.01;38.87;99961.69;4975778;28;4608;-56
2022/03/30 11:56:37;;;;;;;;;;;;;;;21.06;38.89;99961.13;4978071;28;4629;-57
2022/03/30 11:59:04;;;;;;;;;;;;;;;21.02;39.02;99960.28;4976245;28;4394;-55
2022/03/30 12:01:30;;;;;;;;;;;;;;;21.03;39.13;99967.53;4978805;28;5394;-56
2022/03/30 12:03:56;;;;;;;;;;;;;;;21.03;39.44;99959.59;4973300;28;4978;-57
2022/03/30 12:06:23;;;;;;;;;;;;;;;21.04;39.46;99954.59;4975637;28;4045;-56
2022/03/30 12:08:49;;;;;;;;;;;;;;;21.04;39.32;99957.47;4975396;28;4817;-58
2022/03/30 12:11:19;;;;;;;;;;;;;;;21.03;39.59;99956.72;4972719;28;4432;-55
2022/03/30 12:13:49;;;;;;;;;;;;;;;21.01;39.82;99958.81;4976497;28;4077;-54
2022/03/30 12:16:16;;;;;;;;;;;;;;;21.04;39.86;99961.06;4976994;28;4734;-57
2022/03/30 12:18:46;;;;;;;;;;;;;;;21.09;39.76;99959.03;4975080;28;4601;-56
2022/03/30 12:21:41;;;;;;;;;;;;;;;21.11;40.00;99959.09;4975632;28;5267;-57
2022/03/30 12:24:12;;;;;;;;;;;;;;;21.10;40.15;99946.88;4972727;28;4375;-56
2022/03/30 12:26:44;;;;;;;;;;;;;;;21.13;39.82;99951.25;4977834;28;4210;-55
2022/03/30 12:29:14;;;;;;;;;;;;;;;21.16;39.85;99948.44;4975446;28;5924;-56
2022/03/30 12:31:52;;;;;;;;;;;;;;;21.21;40.08;99947.91;4977364;28;4227;-55
2022/03/30 12:34:19;;;;;;;;;;;;;;;21.23;40.13;99945.06;4975969;28;5349;-57
2022/03/30 12:36:46;;;;;;;;;;;;;;;21.19;40.29;99947.06;4975389;28;4195;-56
2022/03/30 12:39:20;;;;;;;;;;;;;;;21.20;40.45;99942.81;4978236;28;5497;-54
2022/03/30 12:41:56;;;;;;;;;;;;;;;21.19;40.34;99942.06;4978084;28;4659;-57
2022/03/30 12:44:22;;;;;;;;;;;;;;;21.19;40.28;99942.06;4972844;28;4135;-55
2022/03/30 12:46:52;;;;;;;;;;;;;;;21.19;40.52;99942.06;4978577;28;4420;-56
2022/03/30 12:49:18;;;;;;;;;;;;;;;21.20;40.54;99934.91;4978082;28;4406;-55
2022/03/30 12:51:45;;;;;;;;;;;;;;;21.18;40.63;99934.84;4976403;28;5431;-58
2022/03/30 12:54:20;;;;;;;;;;;;;;;21.19;40.52;99929.81;4969895;28;6040;-54
2022/03/30 12:56:46;;;;;;;;;;;;;;;21.19;40.60;99924.81;4971403;28;4247;-58
2022/03/30 12:59:17;;;;;;;;;;;;;;;21.19;40.56;99924.81;4973585;28;4295;-55